Time;durP1;ratioP1;P1;durP2;ratioP2;P2;SDS_P1;SDS_P2;PMS_P1;PMS_P2;Temp;Humidity;BMP_temperature;BMP_pressure;BME280_temperature;BME280_humidity;BME280_pressure;Samples;Min_cycle;Max_cycle;Signal;HPM_P1;HPM_P2
2021/08/16 00:00:45;;;;;;;;;;;;;;;15.54;100.00;98622.84;5074989;28;19931;-74
2021/08/16 00:03:12;;;;;;;;;;;;;;;15.56;100.00;98611.13;5074824;28;19935;-74
2021/08/16 00:05:39;;;;;;;;;;;;;;;15.04;100.00;98603.63;5057097;28;19924;-73
2021/08/16 00:08:07;;;;;;;;;;;;;;;14.94;100.00;98607.69;5074844;28;19928;-74
2021/08/16 00:10:35;;;;;;;;;;;;;;;14.77;100.00;98623.22;5057071;28;20322;-73
2021/08/16 00:13:02;;;;;;;;;;;;;;;15.07;100.00;98616.78;5057196;28;20387;-74
2021/08/16 00:15:29;;;;;;;;;;;;;;;15.15;100.00;98609.63;5040620;28;19990;-74
2021/08/16 00:17:59;;;;;;;;;;;;;;;15.10;100.00;98626.34;5074478;28;20350;-74
2021/08/16 00:20:27;;;;;;;;;;;;;;;15.13;100.00;98628.22;5074685;28;19924;-74
2021/08/16 00:22:54;;;;;;;;;;;;;;;15.11;100.00;98623.06;5056272;28;20391;-74
2021/08/16 00:25:21;;;;;;;;;;;;;;;15.17;100.00;98618.38;5056635;28;19925;-74
2021/08/16 00:27:48;;;;;;;;;;;;;;;14.91;100.00;98619.84;5056753;28;20354;-73
2021/08/16 00:30:15;;;;;;;;;;;;;;;14.92;100.00;98620.66;5056710;28;19931;-74
2021/08/16 00:32:42;;;;;;;;;;;;;;;14.92;100.00;98615.03;5056446;28;20015;-74
2021/08/16 00:35:09;;;;;;;;;;;;;;;15.07;100.00;98616.78;5074462;28;20001;-74
2021/08/16 00:37:36;;;;;;;;;;;;;;;15.45;100.00;98620.03;5056404;28;20383;-73
2021/08/16 00:40:04;;;;;;;;;;;;;;;15.58;100.00;98611.44;5074060;28;19925;-74
2021/08/16 00:42:33;;;;;;;;;;;;;;;15.18;100.00;98600.25;5074192;28;20279;-74
2021/08/16 00:45:01;;;;;;;;;;;;;;;14.95;100.00;98606.44;5074129;28;19990;-74
2021/08/16 00:47:28;;;;;;;;;;;;;;;15.57;100.00;98609.91;5074125;28;19925;-74
2021/08/16 00:49:55;;;;;;;;;;;;;;;15.79;100.00;98610.53;5055769;28;20005;-74
2021/08/16 00:52:22;;;;;;;;;;;;;;;15.11;100.00;98606.19;5073888;28;19928;-74
2021/08/16 00:54:51;;;;;;;;;;;;;;;15.14;100.00;98604.47;5074144;28;20351;-74
2021/08/16 00:57:18;;;;;;;;;;;;;;;15.14;100.00;98633.38;5074033;28;19928;-74
2021/08/16 00:59:45;;;;;;;;;;;;;;;14.95;100.00;98628.94;5074028;28;20272;-73
2021/08/16 01:02:12;;;;;;;;;;;;;;;15.03;100.00;98633.03;5023231;28;20375;-74
2021/08/16 01:04:39;;;;;;;;;;;;;;;15.20;100.00;98625.91;5073954;28;19932;-74
2021/08/16 01:07:06;;;;;;;;;;;;;;;15.31;100.00;98623.41;5056020;28;20011;-74
2021/08/16 01:09:33;;;;;;;;;;;;;;;15.54;100.00;98616.47;5055313;28;19929;-74
2021/08/16 01:12:00;;;;;;;;;;;;;;;15.37;100.00;98615.94;5073862;28;19931;-74
2021/08/16 01:14:27;;;;;;;;;;;;;;;15.49;100.00;98626.31;5023123;28;20031;-74
2021/08/16 01:16:57;;;;;;;;;;;;;;;15.75;100.00;98615.53;5036126;28;19925;-74
2021/08/16 01:19:24;;;;;;;;;;;;;;;15.44;100.00;98618.47;5066170;28;19967;-74
2021/08/16 01:21:51;;;;;;;;;;;;;;;15.29;100.00;98630.75;5055099;28;20356;-74
2021/08/16 01:24:18;;;;;;;;;;;;;;;15.65;100.00;98628.03;5072299;28;19925;-74
2021/08/16 01:26:46;;;;;;;;;;;;;;;15.84;100.00;98624.75;5037628;28;20071;-74
2021/08/16 01:29:14;;;;;;;;;;;;;;;15.56;100.00;98623.19;5073903;28;19978;-74
2021/08/16 01:31:54;;;;;;;;;;;;;;;15.66;100.00;98627.56;5073681;28;20447;-74
2021/08/16 01:34:20;;;;;;;;;;;;;;;15.81;100.00;98630.56;5073843;28;20392;-74
2021/08/16 01:36:47;;;;;;;;;;;;;;;15.48;100.00;98635.22;5055750;28;19939;-74
2021/08/16 01:39:15;;;;;;;;;;;;;;;14.81;100.00;98623.91;5073349;28;20015;-73
2021/08/16 01:41:42;;;;;;;;;;;;;;;15.10;100.00;98638.34;5073322;28;20007;-74
2021/08/16 01:44:14;;;;;;;;;;;;;;;15.01;100.00;98643.94;5073589;28;19925;-74
2021/08/16 01:46:42;;;;;;;;;;;;;;;14.97;100.00;98622.84;5055796;28;20509;-74
2021/08/16 01:49:11;;;;;;;;;;;;;;;15.09;100.00;98631.19;5073630;28;20433;-74
2021/08/16 01:51:39;;;;;;;;;;;;;;;14.97;100.00;98615.19;5072925;28;19925;-74
2021/08/16 01:54:07;;;;;;;;;;;;;;;15.07;100.00;98616.00;5073346;28;19924;-73
2021/08/16 01:56:34;;;;;;;;;;;;;;;14.77;100.00;98614.03;5073447;28;19932;-73
2021/08/16 01:59:01;;;;;;;;;;;;;;;14.78;100.00;98621.22;5073589;28;19932;-73
2021/08/16 02:01:28;;;;;;;;;;;;;;;15.05;100.00;98619.28;5074359;28;19928;-73
2021/08/16 02:03:55;;;;;;;;;;;;;;;14.92;100.00;98615.78;5076642;28;20015;-73
2021/08/16 02:06:22;;;;;;;;;;;;;;;15.12;100.00;98596.47;5078148;28;19932;-73
2021/08/16 02:08:50;;;;;;;;;;;;;;;15.10;100.00;98610.22;5075993;28;19987;-73
2021/08/16 02:11:17;;;;;;;;;;;;;;;14.71;100.00;98611.00;5076356;28;19924;-73
2021/08/16 02:13:44;;;;;;;;;;;;;;;14.89;100.00;98616.72;5058535;28;19936;-73
2021/08/16 02:16:12;;;;;;;;;;;;;;;15.06;100.00;98611.63;5059260;28;19938;-73
2021/08/16 02:18:39;;;;;;;;;;;;;;;15.11;100.00;98620.25;5062130;28;19928;-74
2021/08/16 02:21:06;;;;;;;;;;;;;;;14.85;100.00;98596.41;5076282;28;20284;-73
2021/08/16 02:23:33;;;;;;;;;;;;;;;15.07;100.00;98622.41;5076679;28;19929;-73
2021/08/16 02:26:00;;;;;;;;;;;;;;;14.97;100.00;98637.69;5076595;28;19932;-73
2021/08/16 02:28:28;;;;;;;;;;;;;;;14.71;100.00;98629.94;5076843;28;20271;-73
2021/08/16 02:30:55;;;;;;;;;;;;;;;15.22;100.00;98623.38;5061356;28;19924;-74
2021/08/16 02:33:22;;;;;;;;;;;;;;;15.17;100.00;98621.19;5076441;28;20047;-73
2021/08/16 02:35:49;;;;;;;;;;;;;;;15.06;100.00;98625.69;5058436;28;19924;-74
2021/08/16 02:38:16;;;;;;;;;;;;;;;14.95;100.00;98640.19;5076621;28;20016;-74
2021/08/16 02:40:43;;;;;;;;;;;;;;;15.07;100.00;98647.72;5076548;28;19928;-74
2021/08/16 02:43:10;;;;;;;;;;;;;;;15.30;100.00;98644.38;5041727;28;19924;-74
2021/08/16 02:45:37;;;;;;;;;;;;;;;15.11;100.00;98650.41;5076434;28;19924;-74
2021/08/16 02:48:04;;;;;;;;;;;;;;;15.31;100.00;98642.34;5058512;28;19932;-74
2021/08/16 02:50:32;;;;;;;;;;;;;;;15.12;100.00;98641.50;5058613;28;20425;-73
2021/08/16 02:52:59;;;;;;;;;;;;;;;15.29;100.00;98637.19;5076300;28;19932;-73
2021/08/16 02:55:26;;;;;;;;;;;;;;;15.32;100.00;98629.81;5058703;28;19989;-73
2021/08/16 02:57:53;;;;;;;;;;;;;;;15.30;100.00;98633.09;5076317;28;20340;-74
2021/08/16 03:00:20;;;;;;;;;;;;;;;15.41;100.00;98630.66;5058261;28;19924;-73
2021/08/16 03:02:47;;;;;;;;;;;;;;;15.12;100.00;98632.25;5075744;28;20074;-74
2021/08/16 03:05:14;;;;;;;;;;;;;;;15.36;100.00;98636.88;5058172;28;19946;-73
2021/08/16 03:07:41;;;;;;;;;;;;;;;15.37;100.00;98641.28;5076266;28;19924;-73
2021/08/16 03:10:09;;;;;;;;;;;;;;;15.43;100.00;98650.69;5076166;28;20287;-74
2021/08/16 03:12:37;;;;;;;;;;;;;;;15.49;100.00;98650.84;5058001;28;20302;-74
2021/08/16 03:15:05;;;;;;;;;;;;;;;14.90;100.00;98645.63;5075763;28;20399;-74
2021/08/16 03:17:32;;;;;;;;;;;;;;;15.33;100.00;98648.28;5057747;28;19924;-74
2021/08/16 03:19:58;;;;;;;;;;;;;;;15.92;100.00;98631.66;5057977;28;19928;-74
2021/08/16 03:22:26;;;;;;;;;;;;;;;15.47;100.00;98645.69;5075617;28;19935;-74
2021/08/16 03:24:53;;;;;;;;;;;;;;;15.37;100.00;98663.00;5075767;28;19948;-74
2021/08/16 03:27:20;;;;;;;;;;;;;;;15.33;100.00;98656.72;5057967;28;20395;-73
2021/08/16 03:29:47;;;;;;;;;;;;;;;15.67;100.00;98651.69;5075520;28;19925;-74
2021/08/16 03:32:14;;;;;;;;;;;;;;;15.19;100.00;98658.09;5075234;28;20411;-74
2021/08/16 03:34:41;;;;;;;;;;;;;;;15.19;100.00;98646.81;5057716;28;20444;-73
2021/08/16 03:37:08;;;;;;;;;;;;;;;15.08;100.00;98643.69;5057836;28;19931;-73
2021/08/16 03:39:35;;;;;;;;;;;;;;;15.32;100.00;98655.94;5057483;28;20295;-74
2021/08/16 03:42:02;;;;;;;;;;;;;;;15.34;100.00;98656.25;5057694;28;19924;-74
2021/08/16 03:44:29;;;;;;;;;;;;;;;15.22;100.00;98662.03;5057530;28;20383;-74
2021/08/16 03:46:56;;;;;;;;;;;;;;;15.21;100.00;98666.06;5024139;28;19968;-74
2021/08/16 03:49:24;;;;;;;;;;;;;;;15.37;100.00;98669.44;5075497;28;19935;-74
2021/08/16 03:51:51;;;;;;;;;;;;;;;15.60;100.00;98668.84;5040925;28;19978;-74
2021/08/16 03:54:18;;;;;;;;;;;;;;;15.22;100.00;98681.72;5075345;28;19928;-74
2021/08/16 03:56:45;;;;;;;;;;;;;;;15.21;100.00;98683.75;5074894;28;19967;-74
2021/08/16 03:59:12;;;;;;;;;;;;;;;15.06;100.00;98685.56;5075251;28;20295;-73
2021/08/16 04:01:39;;;;;;;;;;;;;;;15.48;100.00;98686.66;5074616;28;19960;-73
2021/08/16 04:04:07;;;;;;;;;;;;;;;15.50;100.00;98695.44;5057091;28;19925;-74
2021/08/16 04:06:34;;;;;;;;;;;;;;;15.21;100.00;98671.69;5075176;28;20368;-74
2021/08/16 04:09:02;;;;;;;;;;;;;;;15.07;100.00;98703.22;5074912;28;19942;-74
2021/08/16 04:11:29;;;;;;;;;;;;;;;15.07;100.00;98701.19;5057077;28;19931;-74
2021/08/16 04:14:06;;;;;;;;;;;;;;;15.21;100.00;98697.81;5074863;28;19959;-74
2021/08/16 04:16:40;;;;;;;;;;;;;;;15.09;100.00;98704.31;5057550;28;19924;-73
2021/08/16 04:19:17;;;;;;;;;;;;;;;15.25;100.00;98706.88;5074886;28;19931;-74
2021/08/16 04:21:54;;;;;;;;;;;;;;;15.28;100.00;98708.78;5074397;28;19925;-74
2021/08/16 04:24:26;;;;;;;;;;;;;;;15.24;100.00;98710.97;5068588;28;19925;-74
2021/08/16 04:26:56;;;;;;;;;;;;;;;15.27;100.00;98718.47;5066685;28;19955;-73
2021/08/16 04:29:25;;;;;;;;;;;;;;;15.15;100.00;98710.91;5054483;28;20019;-73
2021/08/16 04:31:52;;;;;;;;;;;;;;;15.53;100.00;98705.78;5058032;28;19928;-74
2021/08/16 04:34:19;;;;;;;;;;;;;;;15.15;100.00;98713.72;5074150;28;19960;-74
2021/08/16 04:36:46;;;;;;;;;;;;;;;15.01;100.00;98716.34;5056703;28;20030;-73
2021/08/16 04:39:13;;;;;;;;;;;;;;;15.68;100.00;98715.19;5074009;28;19929;-74
2021/08/16 04:41:40;;;;;;;;;;;;;;;15.48;100.00;98726.09;5056442;28;19924;-74
2021/08/16 04:44:07;;;;;;;;;;;;;;;15.21;100.00;98717.50;5073864;28;20372;-73
2021/08/16 04:46:34;;;;;;;;;;;;;;;15.23;100.00;98728.31;5073621;28;19956;-74
2021/08/16 04:49:25;;;;;;;;;;;;;;;15.64;100.00;98717.38;5137310;27;19919;-74
2021/08/16 04:51:52;;;;;;;;;;;;;;;15.44;100.00;98719.81;5113826;28;19930;-74
2021/08/16 04:54:19;;;;;;;;;;;;;;;15.44;100.00;98730.28;5113723;28;20014;-74
2021/08/16 04:56:46;;;;;;;;;;;;;;;15.73;100.00;98742.75;5113430;28;20333;-74
2021/08/16 04:59:13;;;;;;;;;;;;;;;15.60;100.00;98744.88;5131537;28;19959;-74
2021/08/16 05:01:40;;;;;;;;;;;;;;;15.92;100.00;98755.63;5131889;28;20290;-74
2021/08/16 05:04:07;;;;;;;;;;;;;;;15.88;100.00;98760.63;5131605;28;19927;-74
2021/08/16 05:06:34;;;;;;;;;;;;;;;15.93;100.00;98757.19;5131438;28;19931;-74
2021/08/16 05:09:02;;;;;;;;;;;;;;;15.46;100.00;98756.75;5131701;28;20024;-74
2021/08/16 05:11:30;;;;;;;;;;;;;;;16.08;100.00;98746.88;5096198;28;20340;-74
2021/08/16 05:13:56;;;;;;;;;;;;;;;15.89;100.00;98750.91;5113006;28;20023;-74
2021/08/16 05:16:25;;;;;;;;;;;;;;;15.97;100.00;98762.66;5131442;28;19931;-74
2021/08/16 05:18:53;;;;;;;;;;;;;;;16.00;100.00;98762.53;5131240;28;19924;-74
2021/08/16 05:21:20;;;;;;;;;;;;;;;16.03;100.00;98761.59;5096041;28;19923;-74
2021/08/16 05:23:48;;;;;;;;;;;;;;;15.53;100.00;98766.94;5131289;28;19953;-73
2021/08/16 05:26:15;;;;;;;;;;;;;;;15.50;100.00;98763.00;5131066;28;19924;-73
2021/08/16 05:28:42;;;;;;;;;;;;;;;15.29;100.00;98765.84;5112619;28;20004;-74
2021/08/16 05:31:09;;;;;;;;;;;;;;;15.37;100.00;98778.41;5112777;28;19923;-73
2021/08/16 05:33:36;;;;;;;;;;;;;;;15.63;100.00;98783.38;5112926;28;19959;-74
2021/08/16 05:36:03;;;;;;;;;;;;;;;15.32;100.00;98773.38;5111813;28;19924;-74
2021/08/16 05:38:31;;;;;;;;;;;;;;;15.66;100.00;98785.28;5131041;28;19927;-74
2021/08/16 05:40:58;;;;;;;;;;;;;;;15.59;100.00;98791.22;5130732;28;19924;-74
2021/08/16 05:43:26;;;;;;;;;;;;;;;15.80;100.00;98795.97;5130742;28;20446;-74
2021/08/16 05:45:53;;;;;;;;;;;;;;;15.58;100.00;98809.38;5101000;28;19924;-74
2021/08/16 05:48:20;;;;;;;;;;;;;;;15.72;100.00;98820.03;5130648;28;19930;-74
2021/08/16 05:50:47;;;;;;;;;;;;;;;16.18;100.00;98795.59;5112466;28;19935;-74
2021/08/16 05:53:14;;;;;;;;;;;;;;;15.59;100.00;98796.84;5112485;28;19949;-74
2021/08/16 05:55:44;;;;;;;;;;;;;;;15.40;100.00;98795.19;5130559;28;19923;-74
2021/08/16 05:58:11;;;;;;;;;;;;;;;15.94;100.00;98792.56;5129990;28;19927;-74
2021/08/16 06:00:38;;;;;;;;;;;;;;;15.97;100.00;98794.47;5115574;28;19959;-74
2021/08/16 06:03:05;;;;;;;;;;;;;;;15.93;100.00;98793.03;5100424;28;20020;-74
2021/08/16 06:05:33;;;;;;;;;;;;;;;15.62;100.00;98797.94;5084834;28;19923;-73
2021/08/16 06:08:00;;;;;;;;;;;;;;;15.54;100.00;98800.25;5090449;28;19928;-74
2021/08/16 06:10:27;;;;;;;;;;;;;;;15.68;100.00;98808.13;5090981;28;19924;-73
2021/08/16 06:12:54;;;;;;;;;;;;;;;15.85;100.00;98822.75;5109199;28;19989;-73
2021/08/16 06:15:21;;;;;;;;;;;;;;;15.53;100.00;98821.22;5112538;28;20283;-73
2021/08/16 06:17:48;;;;;;;;;;;;;;;15.52;100.00;98824.50;5090188;28;20012;-73
2021/08/16 06:20:15;;;;;;;;;;;;;;;15.25;100.00;98825.09;5110154;28;19930;-73
2021/08/16 06:22:42;;;;;;;;;;;;;;;15.83;100.00;98813.97;5111453;28;19939;-73
2021/08/16 06:25:09;;;;;;;;;;;;;;;15.55;100.00;98827.19;5094767;28;19924;-73
2021/08/16 06:27:37;;;;;;;;;;;;;;;15.34;100.00;98830.78;5106995;28;20151;-73
2021/08/16 06:30:04;;;;;;;;;;;;;;;15.38;100.00;98833.50;5061246;28;19924;-73
2021/08/16 06:32:33;;;;;;;;;;;;;;;15.78;100.00;98835.06;5105929;28;19924;-73
2021/08/16 06:35:01;;;;;;;;;;;;;;;15.90;100.00;98837.00;5112010;28;19924;-74
2021/08/16 06:37:28;;;;;;;;;;;;;;;15.92;100.00;98826.06;5112878;28;19937;-74
2021/08/16 06:39:55;;;;;;;;;;;;;;;16.04;100.00;98846.91;5109854;28;20082;-73
2021/08/16 06:42:22;;;;;;;;;;;;;;;16.32;100.00;98850.56;5093836;28;20291;-74
2021/08/16 06:44:49;;;;;;;;;;;;;;;16.15;100.00;98842.41;5094813;28;20438;-73
2021/08/16 06:47:18;;;;;;;;;;;;;;;15.98;100.00;98855.19;5114449;28;20080;-74
2021/08/16 06:51:23;;;;;;;;;;;;;;;15.78;100.00;98845.59;5111664;27;19923;-73
2021/08/16 06:53:51;;;;;;;;;;;;;;;15.72;100.00;98853.84;5105101;28;20336;-75
2021/08/16 07:00:03;;;;;;;;;;;;;;;15.63;100.00;98856.59;5100995;28;19923;-75
2021/08/16 07:02:30;;;;;;;;;;;;;;;15.49;100.00;98862.81;5083513;28;19931;-73
2021/08/16 07:04:58;;;;;;;;;;;;;;;15.48;100.00;98866.09;5094748;28;19925;-73
2021/08/16 07:07:26;;;;;;;;;;;;;;;15.47;100.00;98870.94;5098720;28;19931;-73
2021/08/16 07:09:53;;;;;;;;;;;;;;;15.67;100.00;98874.16;5105190;28;19969;-73
2021/08/16 07:12:20;;;;;;;;;;;;;;;16.01;100.00;98862.72;5107069;28;19924;-74
2021/08/16 07:14:47;;;;;;;;;;;;;;;15.99;100.00;98873.66;5107502;28;20287;-73
2021/08/16 07:17:14;;;;;;;;;;;;;;;15.48;100.00;98880.94;5105800;28;19981;-73
2021/08/16 07:19:42;;;;;;;;;;;;;;;15.47;100.00;98876.56;5103643;28;19959;-74
2021/08/16 07:22:09;;;;;;;;;;;;;;;15.73;100.00;98889.22;5103002;28;20412;-73
2021/08/16 07:24:36;;;;;;;;;;;;;;;15.70;100.00;98895.78;5102787;28;19931;-74
2021/08/16 07:27:03;;;;;;;;;;;;;;;15.95;100.00;98895.56;5110481;28;20366;-74
2021/08/16 07:29:30;;;;;;;;;;;;;;;15.60;100.00;98891.31;5109228;28;19968;-73
2021/08/16 07:31:58;;;;;;;;;;;;;;;15.80;100.00;98896.59;5109084;28;19924;-73
2021/08/16 07:34:25;;;;;;;;;;;;;;;15.94;100.00;98891.19;5110811;28;19934;-73
2021/08/16 07:36:54;;;;;;;;;;;;;;;15.51;100.00;98888.47;5110574;28;19928;-73
2021/08/16 07:39:21;;;;;;;;;;;;;;;15.84;100.00;98889.56;5110302;28;19924;-73
2021/08/16 07:41:48;;;;;;;;;;;;;;;15.21;100.00;98896.84;5110599;28;20373;-73
2021/08/16 07:44:15;;;;;;;;;;;;;;;15.81;100.00;98901.75;5110446;28;19928;-73
2021/08/16 07:46:43;;;;;;;;;;;;;;;15.63;100.00;98907.31;5104700;28;20419;-73
2021/08/16 07:49:10;;;;;;;;;;;;;;;15.75;100.00;98908.47;5107705;28;19931;-73
2021/08/16 07:51:37;;;;;;;;;;;;;;;16.19;100.00;98921.19;5109843;28;19928;-73
2021/08/16 07:54:04;;;;;;;;;;;;;;;16.26;100.00;98915.25;5109537;28;19935;-73
2021/08/16 07:56:31;;;;;;;;;;;;;;;15.90;100.00;98898.97;5110164;28;19931;-73
2021/08/16 07:58:58;;;;;;;;;;;;;;;15.74;100.00;98910.50;5110025;28;19931;-75
2021/08/16 08:01:25;;;;;;;;;;;;;;;15.49;100.00;98919.13;5103861;28;20790;-74
2021/08/16 08:03:53;;;;;;;;;;;;;;;16.30;100.00;98932.03;5096409;28;19924;-74
2021/08/16 08:06:21;;;;;;;;;;;;;;;16.27;100.00;98927.31;5096118;28;19925;-75
2021/08/16 08:08:48;;;;;;;;;;;;;;;16.18;100.00;98930.88;5094207;28;19924;-75
2021/08/16 08:11:15;;;;;;;;;;;;;;;16.15;100.00;98938.25;5094366;28;20089;-75
2021/08/16 08:13:43;;;;;;;;;;;;;;;15.86;100.00;98956.72;5094522;28;19993;-75
2021/08/16 08:16:10;;;;;;;;;;;;;;;15.93;100.00;98957.22;5094337;28;19969;-75
2021/08/16 08:18:37;;;;;;;;;;;;;;;15.94;100.00;98961.63;5075898;28;19925;-75
2021/08/16 08:21:04;;;;;;;;;;;;;;;15.85;100.00;98963.59;5094179;28;19931;-75
2021/08/16 08:23:32;;;;;;;;;;;;;;;15.76;100.00;98984.06;5095878;28;19931;-74
2021/08/16 08:25:58;;;;;;;;;;;;;;;15.21;100.00;98984.88;5095661;28;19931;-74
2021/08/16 08:28:25;;;;;;;;;;;;;;;15.27;100.00;98991.50;5077439;28;19963;-74
2021/08/16 08:30:54;;;;;;;;;;;;;;;15.37;100.00;98984.72;5094272;28;20379;-75
2021/08/16 08:33:22;;;;;;;;;;;;;;;15.53;100.00;98992.97;5094406;28;19947;-74
2021/08/16 08:35:51;;;;;;;;;;;;;;;15.67;100.00;98981.19;5094965;28;19932;-74
2021/08/16 08:38:18;;;;;;;;;;;;;;;15.74;100.00;98992.19;5091200;28;20026;-74
2021/08/16 08:40:45;;;;;;;;;;;;;;;16.01;100.00;98989.53;5094982;28;19926;-75
2021/08/16 08:43:14;;;;;;;;;;;;;;;15.60;100.00;98991.94;5095118;28;19924;-74
2021/08/16 08:45:42;;;;;;;;;;;;;;;15.80;100.00;98995.97;5077053;28;20387;-74
2021/08/16 08:48:12;;;;;;;;;;;;;;;15.81;100.00;99003.19;5090196;28;19935;-74
2021/08/16 08:50:40;;;;;;;;;;;;;;;16.12;100.00;99001.19;5094350;28;19924;-74
2021/08/16 08:53:07;;;;;;;;;;;;;;;15.92;100.00;99002.78;5092554;28;19928;-74
2021/08/16 08:55:34;;;;;;;;;;;;;;;15.83;100.00;99000.69;5086888;28;19924;-74
2021/08/16 08:58:13;;;;;;;;;;;;;;;15.93;100.00;99015.63;5088875;28;20432;-74
2021/08/16 09:00:41;;;;;;;;;;;;;;;15.77;100.00;99024.28;5094523;28;19928;-74
2021/08/16 09:03:09;;;;;;;;;;;;;;;15.74;100.00;99014.72;5094498;28;19960;-74
2021/08/16 09:05:53;;;;;;;;;;;;;;;15.80;100.00;99024.16;5089968;28;20445;-74
2021/08/16 09:08:31;;;;;;;;;;;;;;;15.69;100.00;99026.56;5081928;28;19962;-74
2021/08/16 09:11:08;;;;;;;;;;;;;;;15.86;100.00;99033.59;5088833;28;20359;-74
2021/08/16 09:13:35;;;;;;;;;;;;;;;15.84;100.00;99024.78;5086048;28;19934;-74
2021/08/16 09:16:10;;;;;;;;;;;;;;;15.93;100.00;99022.03;5093421;28;19975;-74
2021/08/16 09:18:37;;;;;;;;;;;;;;;15.76;100.00;99022.72;5094461;28;19924;-74
2021/08/16 09:21:04;;;;;;;;;;;;;;;15.74;100.00;99026.00;5086142;28;19928;-74
2021/08/16 09:23:49;;;;;;;;;;;;;;;16.17;100.00;99030.78;5094689;28;20311;-74
2021/08/16 09:26:17;;;;;;;;;;;;;;;16.20;100.00;99039.13;5094533;28;19970;-75
2021/08/16 09:28:45;;;;;;;;;;;;;;;16.32;100.00;99043.09;5094184;28;19928;-75
2021/08/16 09:31:14;;;;;;;;;;;;;;;16.07;100.00;99029.94;5083740;28;19928;-74
2021/08/16 09:38:16;;;;;;;;;;;;;;;16.27;100.00;99057.00;5072057;28;19981;-75
2021/08/16 09:40:43;;;;;;;;;;;;;;;16.15;100.00;99042.53;5088591;28;19924;-74
2021/08/16 09:43:13;;;;;;;;;;;;;;;16.25;100.00;99061.06;5093164;28;19924;-74
2021/08/16 09:45:40;;;;;;;;;;;;;;;16.06;100.00;99059.38;5094247;28;19931;-74
2021/08/16 09:48:18;;;;;;;;;;;;;;;15.62;100.00;99057.03;5093183;28;20287;-74
2021/08/16 09:50:46;;;;;;;;;;;;;;;15.74;100.00;99062.59;5093513;28;19960;-73
2021/08/16 09:53:17;;;;;;;;;;;;;;;15.60;100.00;99077.19;5094175;28;20341;-73
2021/08/16 09:57:14;;;;;;;;;;;;;;;15.66;100.00;99068.97;5077398;27;19916;-73
2021/08/16 09:59:41;;;;;;;;;;;;;;;15.59;100.00;99069.22;5052269;28;19925;-73
2021/08/16 10:02:09;;;;;;;;;;;;;;;15.72;100.00;99084.03;5052617;28;20006;-73
2021/08/16 10:04:36;;;;;;;;;;;;;;;15.80;100.00;99096.59;5054363;28;20426;-73
2021/08/16 10:07:05;;;;;;;;;;;;;;;15.76;100.00;99090.31;5072155;28;19932;-73
2021/08/16 10:09:45;;;;;;;;;;;;;;;15.89;100.00;99079.75;5082328;28;19982;-74
2021/08/16 10:12:12;;;;;;;;;;;;;;;15.86;100.00;99089.13;5084202;28;19924;-74
2021/08/16 10:14:40;;;;;;;;;;;;;;;15.78;100.00;99082.22;5090561;28;19929;-74
2021/08/16 10:17:15;;;;;;;;;;;;;;;15.59;100.00;99089.72;5090333;28;19951;-74
2021/08/16 10:19:43;;;;;;;;;;;;;;;15.44;100.00;99083.00;5090091;28;19977;-74
2021/08/16 10:22:10;;;;;;;;;;;;;;;15.71;100.00;99100.16;5072445;28;19924;-74
2021/08/16 10:24:37;;;;;;;;;;;;;;;15.72;100.00;99100.94;5064080;28;19924;-74
2021/08/16 10:27:07;;;;;;;;;;;;;;;15.90;100.00;99101.84;5069924;28;19955;-74
2021/08/16 10:29:36;;;;;;;;;;;;;;;16.02;100.00;99100.22;5069557;28;20017;-73
2021/08/16 10:32:07;;;;;;;;;;;;;;;16.12;100.00;99108.28;5056387;28;19935;-73
2021/08/16 10:34:34;;;;;;;;;;;;;;;15.99;100.00;99109.59;5071073;28;19928;-74
2021/08/16 10:37:05;;;;;;;;;;;;;;;16.27;100.00;99106.50;5075142;28;19935;-73
2021/08/16 10:39:41;;;;;;;;;;;;;;;16.06;100.00;99106.50;5052728;28;19928;-73
2021/08/16 10:42:12;;;;;;;;;;;;;;;16.41;100.00;99084.63;5073258;28;20353;-73
2021/08/16 10:44:40;;;;;;;;;;;;;;;16.58;100.00;99100.09;5045947;28;20345;-73
2021/08/16 10:47:08;;;;;;;;;;;;;;;16.53;100.00;99103.53;5067836;28;19932;-74
2021/08/16 10:49:37;;;;;;;;;;;;;;;16.16;100.00;99105.34;5071473;28;19932;-73
2021/08/16 10:52:05;;;;;;;;;;;;;;;16.51;100.00;99101.16;5073334;28;20011;-74
2021/08/16 10:54:33;;;;;;;;;;;;;;;16.49;100.00;99111.34;5070769;28;19931;-73
2021/08/16 10:57:00;;;;;;;;;;;;;;;16.15;100.00;99104.53;5027012;28;19925;-73
2021/08/16 10:59:29;;;;;;;;;;;;;;;16.46;100.00;99113.06;5050531;28;19925;-73
2021/08/16 11:01:56;;;;;;;;;;;;;;;16.67;100.00;99108.63;5049293;28;20265;-74
2021/08/16 11:04:27;;;;;;;;;;;;;;;16.37;100.00;99109.38;5050415;28;19929;-74
2021/08/16 11:06:55;;;;;;;;;;;;;;;16.37;100.00;99107.34;5031311;28;20008;-73
2021/08/16 11:09:24;;;;;;;;;;;;;;;16.48;100.00;99085.16;5021696;28;20399;-73
2021/08/16 11:12:03;;;;;;;;;;;;;;;16.31;100.00;99108.41;5018799;28;19925;-73
2021/08/16 11:14:30;;;;;;;;;;;;;;;16.54;100.00;99091.78;5019271;28;19925;-73
2021/08/16 11:16:58;;;;;;;;;;;;;;;16.48;100.00;99090.81;5018604;28;19929;-73
2021/08/16 11:19:26;;;;;;;;;;;;;;;16.54;100.00;99086.13;5030367;28;19933;-74
2021/08/16 11:21:53;;;;;;;;;;;;;;;16.81;100.00;99091.88;5029358;28;20016;-74
2021/08/16 11:24:27;;;;;;;;;;;;;;;16.55;100.00;99089.75;5036677;28;20454;-73
2021/08/16 11:26:55;;;;;;;;;;;;;;;16.79;100.00;99082.31;5018524;28;19929;-73
2021/08/16 11:29:23;;;;;;;;;;;;;;;16.49;100.00;99081.13;5036617;28;19971;-73
2021/08/16 11:31:58;;;;;;;;;;;;;;;16.76;100.00;99086.06;5048772;28;19932;-73
2021/08/16 11:34:29;;;;;;;;;;;;;;;16.81;100.00;99093.94;5036366;28;19929;-74
2021/08/16 11:36:56;;;;;;;;;;;;;;;16.73;100.00;99095.47;5034336;28;19986;-74
2021/08/16 11:39:27;;;;;;;;;;;;;;;16.96;100.00;99100.59;5042223;28;19971;-74
2021/08/16 11:41:59;;;;;;;;;;;;;;;17.04;100.00;99107.50;5037571;28;19986;-74
2021/08/16 11:44:27;;;;;;;;;;;;;;;17.34;100.00;99096.09;5021086;28;19940;-73
2021/08/16 11:46:59;;;;;;;;;;;;;;;16.89;100.00;99095.22;5033955;28;19935;-74
2021/08/16 11:49:26;;;;;;;;;;;;;;;17.02;100.00;99081.78;5036161;28;20067;-74
2021/08/16 11:51:54;;;;;;;;;;;;;;;16.91;100.00;99118.91;5001232;28;20335;-74
2021/08/16 11:54:32;;;;;;;;;;;;;;;16.67;100.00;99102.97;5033950;28;19933;-74
2021/08/16 11:57:00;;;;;;;;;;;;;;;17.14;100.00;99115.53;5051558;28;19929;-73
2021/08/16 11:59:42;;;;;;;;;;;;;;;16.90;100.00;99122.19;5080566;28;19959;-74
2021/08/16 12:02:09;;;;;;;;;;;;;;;17.48;100.00;99100.38;5083323;28;20405;-73
2021/08/16 12:04:37;;;;;;;;;;;;;;;17.56;100.00;99105.28;5066423;28;19978;-73
2021/08/16 12:07:05;;;;;;;;;;;;;;;17.25;100.00;99103.78;5100911;28;19924;-73
2021/08/16 12:09:33;;;;;;;;;;;;;;;17.69;100.00;99107.97;5069675;28;20020;-73
2021/08/16 12:12:01;;;;;;;;;;;;;;;17.81;100.00;99096.50;5069672;28;20406;-74
2021/08/16 12:14:32;;;;;;;;;;;;;;;17.42;100.00;99116.34;5069083;28;20455;-73
2021/08/16 12:17:00;;;;;;;;;;;;;;;17.34;100.00;99112.28;5069782;28;19924;-73
2021/08/16 12:19:27;;;;;;;;;;;;;;;16.97;100.00;99114.22;5069226;28;19925;-73
2021/08/16 12:22:04;;;;;;;;;;;;;;;17.03;100.00;99114.38;5101929;28;20358;-73
2021/08/16 12:24:42;;;;;;;;;;;;;;;17.49;100.00;99107.63;5073080;28;20388;-74
2021/08/16 12:27:26;;;;;;;;;;;;;;;17.60;100.00;99116.41;5059432;28;19916;-73
2021/08/16 12:30:14;;;;;;;;;;;;;;;17.17;100.00;99119.47;5070279;28;19917;-73
2021/08/16 12:32:53;;;;;;;;;;;;;;;17.08;100.00;99125.88;5075738;28;19939;-73
2021/08/16 12:35:32;;;;;;;;;;;;;;;17.02;100.00;99135.41;5101690;27;19912;-73
2021/08/16 12:38:11;;;;;;;;;;;;;;;17.19;100.00;99140.31;5149915;27;19916;-74
2021/08/16 12:40:58;;;;;;;;;;;;;;;16.54;100.00;99138.97;5110525;27;19976;-73
2021/08/16 12:43:38;;;;;;;;;;;;;;;16.82;100.00;99144.28;5131890;27;19930;-73
2021/08/16 12:46:26;;;;;;;;;;;;;;;16.82;100.00;99149.13;5105688;27;19916;-74
2021/08/16 12:49:04;;;;;;;;;;;;;;;16.67;100.00;99148.91;5110924;27;20436;-74
2021/08/16 12:51:42;;;;;;;;;;;;;;;17.31;100.00;99155.59;5101994;27;19939;-73
2021/08/16 12:54:19;;;;;;;;;;;;;;;17.16;100.00;99163.84;5065068;27;1984886;-75